createdAt,value
2018-01-27T00:00:53.037Z,7.30
2018-01-27T00:03:20.496Z,7.30
2018-01-27T00:05:47.948Z,7.30
2018-01-27T00:08:15.405Z,7.30
2018-01-27T00:10:42.857Z,7.30
2018-01-27T00:13:10.317Z,7.30
2018-01-27T00:15:37.789Z,7.30
2018-01-27T00:18:05.249Z,7.30
2018-01-27T00:20:32.705Z,7.30
2018-01-27T00:23:00.160Z,7.30
2018-01-27T00:25:27.613Z,7.30
2018-01-27T00:27:55.069Z,7.30
2018-01-27T00:30:22.521Z,7.30
2018-01-27T00:32:49.977Z,7.30
2018-01-27T00:35:17.429Z,7.30
2018-01-27T00:37:44.884Z,7.20
2018-01-27T00:40:12.336Z,7.20
2018-01-27T00:42:39.796Z,7.20
2018-01-27T00:45:07.247Z,7.20
2018-01-27T00:47:34.701Z,7.20
2018-01-27T00:50:02.153Z,7.20
2018-01-27T00:52:29.618Z,7.20
2018-01-27T00:54:57.074Z,7.20
2018-01-27T00:57:25.297Z,7.20
2018-01-27T00:59:53.513Z,7.10
2018-01-27T01:02:20.968Z,7.10
2018-01-27T01:04:48.429Z,7.10
2018-01-27T01:07:15.883Z,7.20
2018-01-27T01:09:43.332Z,7.10
2018-01-27T01:12:10.804Z,7.10
2018-01-27T01:14:38.249Z,7.10
2018-01-27T01:17:05.697Z,7.10
2018-01-27T01:19:33.153Z,7.10
2018-01-27T01:22:00.604Z,7.10
2018-01-27T01:24:28.070Z,7.10
2018-01-27T01:26:55.524Z,7.10
2018-01-27T01:29:22.985Z,7.10
2018-01-27T01:31:50.441Z,7.10
2018-01-27T01:34:17.901Z,7.20
2018-01-27T01:36:45.353Z,7.20
2018-01-27T01:39:12.817Z,7.20
2018-01-27T01:41:40.264Z,7.10
2018-01-27T01:44:13.475Z,7.10
2018-01-27T01:46:40.921Z,7.10
2018-01-27T01:49:20.149Z,7.10
2018-01-27T01:51:47.601Z,7.20
2018-01-27T01:54:15.060Z,7.20
2018-01-27T01:56:42.511Z,7.20
2018-01-27T01:59:09.964Z,7.20
2018-01-27T02:01:37.425Z,7.10
2018-01-27T02:04:04.880Z,7.10
2018-01-27T02:06:32.338Z,7.10
2018-01-27T02:08:59.792Z,7.00
2018-01-27T02:11:27.242Z,7.00
2018-01-27T02:13:54.705Z,7.00
2018-01-27T02:16:22.160Z,7.00
2018-01-27T02:18:49.617Z,7.00
2018-01-27T02:21:17.077Z,6.90
2018-01-27T02:23:44.532Z,6.90
2018-01-27T02:26:11.992Z,6.90
2018-01-27T02:28:39.445Z,6.90
2018-01-27T02:31:06.901Z,6.90
2018-01-27T02:33:34.359Z,6.90
2018-01-27T02:36:01.812Z,6.90
2018-01-27T02:38:29.262Z,6.90
2018-01-27T02:40:56.722Z,6.90
2018-01-27T02:43:24.180Z,6.90
2018-01-27T02:45:51.660Z,6.90
2018-01-27T02:48:19.101Z,6.90
2018-01-27T02:50:46.563Z,6.90
2018-01-27T02:53:14.017Z,6.90
2018-01-27T02:55:41.472Z,6.90
2018-01-27T02:58:08.942Z,6.90
2018-01-27T03:00:36.390Z,6.90
2018-01-27T03:03:03.841Z,6.90
2018-01-27T03:05:31.298Z,6.90
2018-01-27T03:07:58.749Z,6.90
2018-01-27T03:10:26.210Z,7.00
2018-01-27T03:12:53.660Z,7.00
2018-01-27T03:15:21.119Z,7.00
2018-01-27T03:17:48.569Z,7.00
2018-01-27T03:20:16.037Z,7.00
2018-01-27T03:22:43.481Z,7.10
2018-01-27T03:25:10.936Z,7.10
2018-01-27T03:27:38.385Z,7.10
2018-01-27T03:30:05.844Z,7.10
2018-01-27T03:32:33.289Z,7.10
2018-01-27T03:35:00.750Z,7.10
2018-01-27T03:37:28.206Z,7.10
2018-01-27T03:39:55.668Z,7.10
2018-01-27T03:42:23.121Z,7.10
2018-01-27T03:44:50.573Z,7.10
2018-01-27T03:47:18.036Z,7.10
2018-01-27T03:49:45.484Z,7.10
2018-01-27T03:52:13.713Z,7.10
2018-01-27T03:54:41.168Z,7.10
2018-01-27T03:57:08.644Z,7.10
2018-01-27T03:59:36.093Z,7.10
2018-01-27T04:02:03.552Z,7.20
2018-01-27T04:04:31.001Z,7.10
2018-01-27T04:06:58.452Z,7.20
2018-01-27T04:09:26.880Z,7.20
2018-01-27T04:11:54.400Z,7.20
2018-01-27T04:14:21.857Z,7.20
2018-01-27T04:16:49.313Z,7.20
2018-01-27T04:19:16.844Z,7.20
2018-01-27T04:21:44.294Z,7.20
2018-01-27T04:24:11.760Z,7.20
2018-01-27T04:26:39.216Z,7.20
2018-01-27T04:29:06.668Z,7.20
2018-01-27T04:31:34.133Z,7.20
2018-01-27T04:34:01.609Z,7.20
2018-01-27T04:36:29.069Z,7.30
2018-01-27T04:38:56.516Z,7.30
2018-01-27T04:41:23.980Z,7.30
2018-01-27T04:43:51.434Z,7.30
2018-01-27T04:46:20.408Z,7.30
2018-01-27T04:48:47.858Z,7.30
2018-01-27T04:51:15.320Z,7.30
2018-01-27T04:53:42.769Z,7.30
2018-01-27T04:56:10.230Z,7.20
2018-01-27T04:58:37.686Z,7.20
2018-01-27T05:01:05.145Z,7.20
2018-01-27T05:03:32.608Z,7.20
2018-01-27T05:06:00.064Z,7.20
2018-01-27T05:08:27.522Z,7.20
2018-01-27T05:10:54.985Z,7.20
2018-01-27T05:13:23.205Z,7.10
2018-01-27T05:15:51.432Z,7.10
2018-01-27T05:18:18.893Z,7.10
2018-01-27T05:20:46.350Z,7.10
2018-01-27T05:23:13.801Z,7.10
2018-01-27T05:25:41.262Z,7.20
2018-01-27T05:28:08.721Z,7.10
2018-01-27T05:30:36.173Z,7.10
2018-01-27T05:33:04.449Z,7.10
2018-01-27T05:35:31.897Z,7.10
2018-01-27T05:37:59.363Z,7.10
2018-01-27T05:40:26.808Z,7.10
2018-01-27T05:42:54.273Z,7.10
2018-01-27T05:45:21.726Z,7.10
2018-01-27T05:47:49.186Z,7.10
2018-01-27T05:50:16.647Z,7.10
2018-01-27T05:52:44.101Z,7.10
2018-01-27T05:55:11.552Z,7.10
2018-01-27T05:57:39.013Z,7.10
2018-01-27T06:00:06.465Z,7.10
2018-01-27T06:02:33.926Z,7.10
2018-01-27T06:05:01.380Z,7.10
2018-01-27T06:07:28.848Z,7.10
2018-01-27T06:09:56.301Z,7.10
2018-01-27T06:12:23.752Z,7.10
2018-01-27T06:14:51.221Z,7.10
2018-01-27T06:17:18.677Z,7.10
2018-01-27T06:19:46.137Z,7.20
2018-01-27T06:22:13.590Z,7.10
2018-01-27T06:24:41.049Z,7.20
2018-01-27T06:27:08.504Z,7.10
2018-01-27T06:29:35.974Z,7.10
2018-01-27T06:32:03.420Z,7.10
2018-01-27T06:34:30.876Z,7.10
2018-01-27T06:36:58.326Z,7.10
2018-01-27T06:39:25.780Z,7.00
2018-01-27T06:41:53.240Z,7.00
2018-01-27T06:44:20.697Z,7.00
2018-01-27T06:46:48.150Z,7.00
2018-01-27T06:49:15.605Z,7.00
2018-01-27T06:51:43.061Z,7.00
2018-01-27T06:54:10.521Z,7.00
2018-01-27T06:56:37.969Z,7.00
2018-01-27T06:59:05.430Z,7.00
2018-01-27T07:01:32.876Z,7.00
2018-01-27T07:04:00.337Z,7.00
2018-01-27T07:06:27.785Z,7.00
2018-01-27T07:08:55.241Z,7.00
2018-01-27T07:11:22.693Z,7.00
2018-01-27T07:13:50.158Z,6.90
2018-01-27T07:16:18.381Z,6.90
2018-01-27T07:18:46.616Z,6.90
2018-01-27T07:21:14.061Z,6.90
2018-01-27T07:23:41.512Z,6.90
2018-01-27T07:26:08.979Z,6.90
2018-01-27T07:28:36.429Z,6.90
2018-01-27T07:31:03.897Z,6.80
2018-01-27T07:33:31.348Z,6.80
2018-01-27T07:35:58.808Z,6.80
2018-01-27T07:38:26.267Z,6.80
2018-01-27T07:40:53.717Z,6.80
2018-01-27T07:43:21.165Z,6.80
2018-01-27T07:45:48.626Z,6.90
2018-01-27T07:48:16.081Z,6.90
2018-01-27T07:50:43.537Z,6.90
2018-01-27T07:53:11.750Z,6.90
2018-01-27T07:55:39.213Z,6.90
2018-01-27T07:58:07.429Z,7.00
2018-01-27T08:00:34.889Z,7.00
2018-01-27T08:03:02.347Z,7.00
2018-01-27T08:05:29.804Z,7.10
2018-01-27T08:07:57.256Z,7.10
2018-01-27T08:10:24.723Z,7.20
2018-01-27T08:12:52.173Z,7.20
2018-01-27T08:15:19.632Z,7.30
2018-01-27T08:17:47.092Z,7.30
2018-01-27T08:20:14.544Z,7.30
2018-01-27T08:22:41.997Z,7.30
2018-01-27T08:25:09.458Z,7.20
2018-01-27T08:27:36.915Z,7.30
2018-01-27T08:30:04.369Z,7.20
2018-01-27T08:32:31.837Z,7.20
2018-01-27T08:34:59.295Z,7.30
2018-01-27T08:37:26.754Z,7.30
2018-01-27T08:39:54.208Z,7.30
2018-01-27T08:42:21.669Z,7.30
2018-01-27T08:44:49.120Z,7.30
2018-01-27T08:47:16.580Z,7.40
2018-01-27T08:49:44.032Z,7.40
2018-01-27T08:52:11.493Z,7.40
2018-01-27T08:54:38.945Z,7.40
2018-01-27T08:57:06.418Z,7.40
2018-01-27T08:59:33.877Z,7.40
2018-01-27T09:02:01.328Z,7.40
2018-01-27T09:04:28.784Z,7.50
2018-01-27T09:06:56.235Z,7.50
2018-01-27T09:09:23.694Z,7.50
2018-01-27T09:11:51.160Z,7.50
2018-01-27T09:14:18.617Z,7.50
2018-01-27T09:16:46.081Z,7.50
2018-01-27T09:19:13.539Z,7.50
2018-01-27T09:21:40.998Z,7.50
2018-01-27T09:24:08.459Z,7.60
2018-01-27T09:26:35.918Z,7.50
2018-01-27T09:29:03.369Z,7.50
2018-01-27T09:31:30.824Z,7.50
2018-01-27T09:33:58.280Z,7.50
2018-01-27T09:36:25.737Z,7.50
2018-01-27T09:38:53.208Z,7.50
2018-01-27T09:41:21.422Z,7.60
2018-01-27T09:43:48.889Z,7.60
2018-01-27T09:46:16.341Z,7.60
2018-01-27T09:48:43.800Z,7.70
2018-01-27T09:51:11.261Z,7.80
2018-01-27T09:53:38.725Z,7.80
2018-01-27T09:56:06.173Z,7.80
2018-01-27T09:58:33.638Z,7.80
2018-01-27T10:01:01.099Z,7.80
2018-01-27T10:03:28.558Z,7.70
2018-01-27T10:05:56.021Z,7.80
2018-01-27T10:08:23.480Z,7.70
2018-01-27T10:10:50.942Z,7.70
2018-01-27T10:13:18.397Z,7.70
2018-01-27T10:15:45.850Z,7.70
2018-01-27T10:18:13.313Z,7.70
2018-01-27T10:20:40.762Z,7.70
2018-01-27T10:23:08.224Z,7.70
2018-01-27T10:25:35.678Z,7.80
2018-01-27T10:28:03.145Z,7.90
2018-01-27T10:30:30.601Z,7.90
2018-01-27T10:32:58.065Z,8.00
2018-01-27T10:35:26.289Z,8.10
2018-01-27T10:37:53.786Z,8.10
2018-01-27T10:40:21.241Z,8.20
2018-01-27T10:42:48.709Z,8.30
2018-01-27T10:45:16.165Z,8.40
2018-01-27T10:47:43.625Z,8.40
2018-01-27T10:50:11.874Z,8.50
2018-01-27T10:52:40.565Z,8.50
2018-01-27T10:55:08.041Z,8.50
2018-01-27T10:57:35.493Z,8.50
2018-01-27T11:00:03.004Z,8.50
2018-01-27T11:02:35.295Z,8.60
2018-01-27T11:05:02.762Z,8.60
2018-01-27T11:07:30.396Z,8.60
2018-01-27T11:09:57.873Z,8.60
2018-01-27T11:12:25.325Z,8.60
2018-01-27T11:14:52.785Z,8.50
2018-01-27T11:17:20.250Z,8.50
2018-01-27T11:19:47.720Z,8.40
2018-01-27T11:22:18.806Z,8.40
2018-01-27T11:24:46.260Z,8.40
2018-01-27T11:27:13.723Z,8.40
2018-01-27T11:29:41.173Z,8.30
2018-01-27T11:32:08.621Z,8.30
2018-01-27T11:34:36.080Z,8.30
2018-01-27T11:37:03.541Z,8.30
2018-01-27T11:39:31.014Z,8.40
2018-01-27T11:41:58.464Z,8.50
2018-01-27T11:44:25.933Z,8.50
2018-01-27T11:46:53.400Z,8.50
2018-01-27T11:49:20.874Z,8.60
2018-01-27T11:51:48.321Z,8.60
2018-01-27T11:54:15.785Z,8.70
2018-01-27T11:56:43.238Z,8.70
2018-01-27T11:59:10.709Z,8.70
2018-01-27T12:01:38.165Z,8.70
2018-01-27T12:04:05.625Z,8.70
2018-01-27T12:06:33.085Z,8.70
2018-01-27T12:09:00.546Z,8.70
2018-01-27T12:11:28.773Z,8.70
2018-01-27T12:13:56.232Z,8.70
2018-01-27T12:16:23.702Z,8.70
2018-01-27T12:18:51.157Z,8.70
2018-01-27T12:21:18.613Z,8.80
2018-01-27T12:23:46.067Z,8.80
2018-01-27T12:26:13.528Z,8.90
2018-01-27T12:28:40.977Z,8.90
2018-01-27T12:31:08.436Z,8.90
2018-01-27T12:33:35.898Z,9.00
2018-01-27T12:36:03.370Z,9.10
2018-01-27T12:38:30.830Z,9.10
2018-01-27T12:40:58.293Z,9.10
2018-01-27T12:43:25.875Z,9.10
2018-01-27T12:45:54.194Z,9.20
2018-01-27T12:48:21.691Z,9.20
2018-01-27T12:50:49.188Z,9.20
2018-01-27T12:53:16.625Z,9.20
2018-01-27T12:55:44.856Z,9.20
2018-01-27T12:58:12.311Z,9.20
2018-01-27T13:00:39.819Z,9.20
2018-01-27T13:03:08.024Z,9.20
2018-01-27T13:05:35.502Z,9.20
2018-01-27T13:08:02.963Z,9.20
2018-01-27T13:10:36.628Z,9.20
2018-01-27T13:13:04.094Z,9.20
2018-01-27T13:15:31.609Z,9.30
2018-01-27T13:17:59.058Z,9.30
2018-01-27T13:20:26.509Z,9.30
2018-01-27T13:22:53.970Z,9.30
2018-01-27T13:25:22.198Z,9.30
2018-01-27T13:27:49.669Z,9.20
2018-01-27T13:30:17.169Z,9.30
2018-01-27T13:32:44.626Z,9.30
2018-01-27T13:35:12.845Z,9.30
2018-01-27T13:37:40.317Z,9.30
2018-01-27T13:40:07.830Z,9.30
2018-01-27T13:42:36.094Z,9.20
2018-01-27T13:45:04.305Z,9.20
2018-01-27T13:47:31.773Z,9.20
2018-01-27T13:49:59.239Z,9.20
2018-01-27T13:52:26.738Z,9.20
2018-01-27T13:54:54.954Z,9.30
2018-01-27T13:57:22.460Z,9.30
2018-01-27T13:59:49.905Z,9.30
2018-01-27T14:02:17.409Z,9.30
2018-01-27T14:04:44.891Z,9.20
2018-01-27T14:07:12.345Z,9.10
2018-01-27T14:09:39.806Z,9.00
2018-01-27T14:12:07.303Z,8.90
2018-01-27T14:14:34.793Z,8.90
2018-01-27T14:17:03.565Z,8.80
2018-01-27T14:19:31.032Z,8.80
2018-01-27T14:21:58.515Z,8.80
2018-01-27T14:24:25.973Z,8.70
2018-01-27T14:26:53.459Z,8.70
2018-01-27T14:29:20.900Z,8.70
2018-01-27T14:31:48.381Z,8.70
2018-01-27T14:34:15.839Z,8.60
2018-01-27T14:36:46.292Z,8.60
2018-01-27T14:39:14.097Z,8.50
2018-01-27T14:41:41.553Z,8.50
2018-01-27T14:44:09.023Z,8.40
2018-01-27T14:46:36.478Z,8.40
2018-01-27T14:49:03.936Z,8.30
2018-01-27T14:51:31.385Z,8.30
2018-01-27T14:53:58.846Z,8.30
2018-01-27T14:56:26.301Z,8.20
2018-01-27T14:58:53.771Z,8.30
2018-01-27T15:01:21.264Z,8.30
2018-01-27T15:03:49.497Z,8.30
2018-01-27T15:06:16.953Z,8.30
2018-01-27T15:08:44.408Z,8.30
2018-01-27T15:11:11.865Z,8.30
2018-01-27T15:13:39.325Z,8.30
2018-01-27T15:16:06.785Z,8.30
2018-01-27T15:18:34.254Z,8.30
2018-01-27T15:21:01.769Z,8.20
2018-01-27T15:23:29.233Z,8.20
2018-01-27T15:25:56.690Z,8.10
2018-01-27T15:28:24.153Z,8.10
2018-01-27T15:30:51.664Z,8.10
2018-01-27T15:33:19.878Z,8.00
2018-01-27T15:35:47.376Z,8.00
2018-01-27T15:38:14.832Z,8.00
2018-01-27T15:40:43.053Z,7.90
2018-01-27T15:43:10.517Z,7.90
2018-01-27T15:45:37.965Z,7.90
2018-01-27T15:48:05.440Z,7.90
2018-01-27T15:50:32.900Z,7.80
2018-01-27T15:53:00.365Z,7.80
2018-01-27T15:55:27.817Z,7.80
2018-01-27T15:57:55.312Z,7.70
2018-01-27T16:00:23.580Z,7.70
2018-01-27T16:02:51.026Z,7.70
2018-01-27T16:05:18.549Z,7.70
2018-01-27T16:07:45.993Z,7.70
2018-01-27T16:10:13.457Z,7.60
2018-01-27T16:12:40.965Z,7.70
2018-01-27T16:15:08.474Z,7.70
2018-01-27T16:17:35.972Z,7.60
2018-01-27T16:20:03.418Z,7.60
2018-01-27T16:22:30.865Z,7.60
2018-01-27T16:24:58.326Z,7.60
2018-01-27T16:27:25.776Z,7.50
2018-01-27T16:29:53.245Z,7.50
2018-01-27T16:32:20.700Z,7.50
2018-01-27T16:34:48.211Z,7.50
2018-01-27T16:37:15.657Z,7.50
2018-01-27T16:39:43.121Z,7.40
2018-01-27T16:42:10.576Z,7.40
2018-01-27T16:44:38.049Z,7.30
2018-01-27T16:47:05.513Z,7.30
2018-01-27T16:49:33.014Z,7.30
2018-01-27T16:52:00.519Z,7.30
2018-01-27T16:54:27.980Z,7.20
2018-01-27T16:56:55.429Z,7.10
2018-01-27T16:59:22.907Z,7.10
2018-01-27T17:01:50.361Z,7.10
2018-01-27T17:04:17.814Z,7.10
2018-01-27T17:06:45.288Z,7.00
2018-01-27T17:09:12.738Z,7.00
2018-01-27T17:11:40.259Z,7.00
2018-01-27T17:14:08.469Z,6.90
2018-01-27T17:16:35.934Z,6.80
2018-01-27T17:19:03.500Z,6.80
2018-01-27T17:21:31.007Z,6.70
2018-01-27T17:23:58.444Z,6.60
2018-01-27T17:26:26.745Z,6.50
2018-01-27T17:28:54.187Z,6.50
2018-01-27T17:31:21.683Z,6.50
2018-01-27T17:33:49.133Z,6.50
2018-01-27T17:36:16.596Z,6.40
2018-01-27T17:38:44.044Z,6.40
2018-01-27T17:41:11.525Z,6.30
2018-01-27T17:43:38.984Z,6.30
2018-01-27T17:46:06.450Z,6.30
2018-01-27T17:48:33.902Z,6.20
2018-01-27T17:51:01.371Z,6.20
2018-01-27T17:53:28.832Z,6.20
2018-01-27T17:55:56.337Z,6.20
2018-01-27T17:58:23.793Z,6.20
2018-01-27T18:00:51.309Z,6.10
2018-01-27T18:03:18.825Z,6.20
2018-01-27T18:05:47.060Z,6.20
2018-01-27T18:08:14.524Z,6.20
2018-01-27T18:10:41.985Z,6.10
2018-01-27T18:13:09.502Z,6.10
2018-01-27T18:15:36.941Z,6.10
2018-01-27T18:18:04.444Z,6.10
2018-01-27T18:20:32.659Z,6.20
2018-01-27T18:23:00.164Z,6.10
2018-01-27T18:25:28.424Z,6.20
2018-01-27T18:27:55.905Z,6.20
2018-01-27T18:30:24.177Z,6.30
2018-01-27T18:32:51.705Z,6.20
2018-01-27T18:35:19.157Z,6.20
2018-01-27T18:37:46.625Z,6.30
2018-01-27T18:40:14.175Z,6.30
2018-01-27T18:42:41.622Z,6.30
2018-01-27T18:45:09.064Z,6.30
2018-01-27T18:47:36.539Z,6.30
2018-01-27T18:50:04.036Z,6.30
2018-01-27T18:52:32.318Z,6.30
2018-01-27T18:55:00.576Z,6.30
2018-01-27T18:57:28.021Z,6.30
2018-01-27T18:59:55.481Z,6.30
2018-01-27T19:02:22.995Z,6.30
2018-01-27T19:04:50.440Z,6.30
2018-01-27T19:07:17.953Z,6.40
2018-01-27T19:09:45.451Z,6.40
2018-01-27T19:12:12.964Z,6.40
2018-01-27T19:14:40.455Z,6.40
2018-01-27T19:17:07.922Z,6.40
2018-01-27T19:19:35.429Z,6.50
2018-01-27T19:22:02.956Z,6.50
2018-01-27T19:24:30.465Z,6.50
2018-01-27T19:26:57.968Z,6.50
2018-01-27T19:29:26.080Z,6.40
2018-01-27T19:31:53.544Z,6.40
2018-01-27T19:34:21.000Z,6.40
2018-01-27T19:36:48.532Z,6.40
2018-01-27T19:39:15.989Z,6.40
2018-01-27T19:41:43.496Z,6.40
2018-01-27T19:44:11.767Z,6.50
2018-01-27T19:46:40.033Z,6.50
2018-01-27T19:49:07.545Z,6.50
2018-01-27T19:51:34.989Z,6.50
2018-01-27T19:54:02.506Z,6.50
2018-01-27T19:56:30.721Z,6.50
2018-01-27T19:58:58.274Z,6.50
2018-01-27T20:01:26.503Z,6.60
2018-01-27T20:03:54.000Z,6.60
2018-01-27T20:06:21.502Z,6.60
2018-01-27T20:08:49.004Z,6.60
2018-01-27T20:11:17.265Z,6.50
2018-01-27T20:13:45.537Z,6.50
2018-01-27T20:16:12.988Z,6.50
2018-01-27T20:18:40.499Z,6.50
2018-01-27T20:21:07.944Z,6.50
2018-01-27T20:23:35.451Z,6.50
2018-01-27T20:26:02.952Z,6.40
2018-01-27T20:28:30.402Z,6.40
2018-01-27T20:30:57.918Z,6.40
2018-01-27T20:33:25.463Z,6.30
2018-01-27T20:35:52.949Z,6.30
2018-01-27T20:38:20.428Z,6.30
2018-01-27T20:40:48.700Z,6.30
2018-01-27T20:43:16.258Z,6.30
2018-01-27T20:45:44.557Z,6.20
2018-01-27T20:48:12.081Z,6.20
2018-01-27T20:50:40.349Z,6.20
2018-01-27T20:53:08.629Z,6.30
2018-01-27T20:55:36.141Z,6.20
2018-01-27T20:58:03.640Z,6.30
2018-01-27T21:00:31.150Z,6.30
2018-01-27T21:02:58.604Z,6.30
2018-01-27T21:05:26.112Z,6.30
2018-01-27T21:07:53.600Z,6.30
2018-01-27T21:10:21.103Z,6.30
2018-01-27T21:12:48.596Z,6.30
2018-01-27T21:15:16.872Z,6.20
2018-01-27T21:17:45.132Z,6.10
2018-01-27T21:20:12.628Z,6.20
2018-01-27T21:22:40.132Z,6.10
2018-01-27T21:25:07.628Z,6.10
2018-01-27T21:27:35.073Z,6.10
2018-01-27T21:30:03.306Z,6.10
2018-01-27T21:32:30.843Z,6.10
2018-01-27T21:34:58.352Z,6.00
2018-01-27T21:37:26.638Z,6.00
2018-01-27T21:39:54.165Z,6.00
2018-01-27T21:42:21.613Z,6.00
2018-01-27T21:44:49.124Z,6.00
2018-01-27T21:47:17.384Z,5.90
2018-01-27T21:49:44.826Z,5.90
2018-01-27T21:52:12.443Z,5.80
2018-01-27T21:54:39.927Z,5.80
2018-01-27T21:57:07.376Z,5.80
2018-01-27T21:59:34.880Z,5.70
2018-01-27T22:02:03.110Z,5.70
2018-01-27T22:04:30.636Z,5.70
2018-01-27T22:06:58.139Z,5.60
2018-01-27T22:09:25.632Z,5.60
2018-01-27T22:11:53.146Z,5.60
2018-01-27T22:14:20.645Z,5.50
2018-01-27T22:16:48.918Z,5.50
2018-01-27T22:19:17.175Z,5.40
2018-01-27T22:21:44.622Z,5.40
2018-01-27T22:24:12.082Z,5.40
2018-01-27T22:26:39.584Z,5.40
2018-01-27T22:29:07.072Z,5.40
2018-01-27T22:31:34.567Z,5.40
2018-01-27T22:34:02.028Z,5.40
2018-01-27T22:36:29.481Z,5.40
2018-01-27T22:38:56.976Z,5.50
2018-01-27T22:41:24.471Z,5.50
2018-01-27T22:43:51.969Z,5.60
2018-01-27T22:46:20.233Z,5.60
2018-01-27T22:48:47.678Z,5.60
2018-01-27T22:51:15.186Z,5.60
2018-01-27T22:53:42.684Z,5.70
2018-01-27T22:56:10.179Z,5.70
2018-01-27T22:58:38.479Z,5.60
2018-01-27T23:01:11.668Z,5.70
2018-01-27T23:03:39.126Z,5.60
2018-01-27T23:06:06.624Z,5.60
2018-01-27T23:08:34.123Z,5.60
2018-01-27T23:11:02.335Z,5.60
2018-01-27T23:13:29.852Z,5.60
2018-01-27T23:15:58.105Z,5.60
2018-01-27T23:18:25.596Z,5.50
2018-01-27T23:20:53.092Z,5.50
2018-01-27T23:23:20.592Z,5.40
2018-01-27T23:25:48.801Z,5.40
2018-01-27T23:28:16.260Z,5.40
2018-01-27T23:30:43.764Z,5.40
2018-01-27T23:33:11.218Z,5.30
2018-01-27T23:35:38.722Z,5.30
2018-01-27T23:38:06.170Z,5.30
2018-01-27T23:40:33.622Z,5.30
2018-01-27T23:43:01.073Z,5.30
2018-01-27T23:45:28.567Z,5.20
2018-01-27T23:47:56.054Z,5.20
2018-01-27T23:50:23.545Z,5.10
2018-01-27T23:52:51.764Z,5.00
2018-01-27T23:55:19.221Z,4.90
2018-01-27T23:57:46.719Z,4.80
